Time;durP1;ratioP1;P1;durP2;ratioP2;P2;SDS_P1;SDS_P2;PMS_P1;PMS_P2;Temp;Humidity;BMP_temperature;BMP_pressure;BME280_temperature;BME280_humidity;BME280_pressure;Samples;Min_cycle;Max_cycle;Signal;HPM_P1;HPM_P2
2023/06/03 00:00:18;;;;;;;11.40;7.13;;;13.70;99.90;;;;;;5031434;28;20205;-89
2023/06/03 00:02:47;;;;;;;10.57;6.57;;;13.70;99.90;;;;;;5031721;28;20194;-88
2023/06/03 00:05:17;;;;;;;10.07;6.07;;;14.00;99.90;;;;;;5037413;28;20229;-87
2023/06/03 00:07:49;;;;;;;11.30;6.80;;;13.30;99.90;;;;;;5031422;28;20213;-89
2023/06/03 00:10:18;;;;;;;10.57;6.50;;;13.40;99.90;;;;;;5032036;28;20312;-87
2023/06/03 00:12:46;;;;;;;10.07;6.80;;;14.50;99.90;;;;;;5024230;28;20205;-87
2023/06/03 00:15:13;;;;;;;7.90;5.57;;;14.50;99.90;;;;;;5032093;28;20556;-87
2023/06/03 00:17:42;;;;;;;9.77;5.93;;;14.50;99.90;;;;;;5028230;28;20297;-88
2023/06/03 00:20:10;;;;;;;12.70;6.37;;;13.70;99.90;;;;;;5031601;28;20201;-89
2023/06/03 00:22:41;;;;;;;10.47;6.80;;;14.00;99.90;;;;;;5042330;28;20232;-89
2023/06/03 00:25:12;;;;;;;7.43;5.53;;;13.50;99.90;;;;;;5031199;28;20257;-89
2023/06/03 00:27:49;;;;;;;12.73;6.43;;;13.70;99.90;;;;;;5031901;28;20671;-88
2023/06/03 00:30:22;;;;;;;8.93;5.70;;;14.50;99.90;;;;;;5034689;28;20204;-88
2023/06/03 00:32:52;;;;;;;7.53;5.50;;;13.90;99.90;;;;;;5036833;28;20729;-89
2023/06/03 00:35:27;;;;;;;9.10;5.43;;;;;;;;;;5036907;28;20230;-88
2023/06/03 00:37:57;;;;;;;12.20;6.07;;;13.30;99.90;;;;;;5053197;28;20210;-90
2023/06/03 00:40:26;;;;;;;8.20;5.63;;;13.20;99.90;;;;;;5050530;28;20209;-90
2023/06/03 00:42:55;;;;;;;6.07;4.80;;;13.10;99.90;;;;;;5056780;28;20215;-91
2023/06/03 00:45:26;;;;;;;7.93;5.10;;;13.10;99.90;;;;;;5069196;28;20217;-89
2023/06/03 00:47:54;;;;;;;7.73;5.17;;;13.10;99.90;;;;;;5064513;28;20239;-88
2023/06/03 00:50:21;;;;;;;7.57;4.73;;;13.00;99.90;;;;;;5049217;28;20232;-89
2023/06/03 00:52:51;;;;;;;6.63;4.73;;;13.00;99.90;;;;;;5041350;28;20472;-88
2023/06/03 00:55:26;;;;;;;8.07;4.87;;;13.00;99.90;;;;;;5042975;28;20214;-89
2023/06/03 00:58:00;;;;;;;5.73;4.50;;;13.00;99.90;;;;;;5038298;28;20218;-88
2023/06/03 01:00:42;;;;;;;6.50;4.87;;;13.00;99.90;;;;;;5038169;28;20201;-89
2023/06/03 01:03:13;;;;;;;8.30;4.70;;;12.90;99.90;;;;;;5039257;28;20209;-89
2023/06/03 01:05:46;;;;;;;6.53;4.20;;;12.90;99.90;;;;;;5038586;28;20255;-89
2023/06/03 01:08:26;;;;;;;9.07;4.57;;;12.90;99.90;;;;;;5035374;28;20216;-89
2023/06/03 01:11:11;;;;;;;9.57;5.20;;;12.90;99.90;;;;;;5021254;28;20224;-88
2023/06/03 01:14:08;;;;;;;8.23;4.80;;;12.90;99.90;;;;;;5020110;28;20239;-89
2023/06/03 01:16:44;;;;;;;8.50;5.10;;;12.80;99.90;;;;;;5036589;28;20563;-87
2023/06/03 01:19:28;;;;;;;8.03;5.30;;;12.90;99.90;;;;;;5039193;28;20283;-89
2023/06/03 01:22:02;;;;;;;8.13;4.67;;;13.10;99.90;;;;;;5048160;28;20287;-89
2023/06/03 01:24:50;;;;;;;10.10;5.13;;;12.20;99.90;;;;;;5050132;28;20216;-91
2023/06/03 01:27:20;;;;;;;10.17;4.63;;;12.90;99.90;;;;;;5045365;28;20669;-89
2023/06/03 01:29:48;;;;;;;10.27;5.47;;;12.50;99.90;;;;;;5040987;28;20274;-89
2023/06/03 01:32:17;;;;;;;6.43;5.00;;;12.10;99.90;;;;;;5054260;28;20252;-88
2023/06/03 01:34:45;;;;;;;10.47;4.97;;;13.00;99.90;;;;;;5042580;28;20215;-89
2023/06/03 01:37:13;;;;;;;8.47;5.50;;;12.90;99.90;;;;;;5048688;28;20268;-90
2023/06/03 01:39:45;;;;;;;4.67;4.17;;;12.40;99.90;;;;;;5043481;28;20684;-90
2023/06/03 01:42:12;;;;;;;8.77;5.20;;;12.40;99.90;;;;;;5022821;28;20626;-88
2023/06/03 01:44:42;;;;;;;5.73;4.53;;;11.90;99.90;;;;;;5035468;28;20287;-88
2023/06/03 01:47:12;;;;;;;7.57;4.57;;;12.50;99.90;;;;;;5049099;28;20234;-90
2023/06/03 01:49:41;;;;;;;10.33;4.97;;;12.90;99.90;;;;;;5058965;28;20222;-88
2023/06/03 01:52:09;;;;;;;7.50;4.67;;;12.80;99.90;;;;;;5057665;28;20667;-89
2023/06/03 01:54:37;;;;;;;9.40;4.40;;;12.70;99.90;;;;;;5055579;28;20302;-89
2023/06/03 01:57:17;;;;;;;7.07;4.93;;;12.20;99.90;;;;;;5066562;28;20205;-88
2023/06/03 01:59:51;;;;;;;7.50;4.70;;;;;;;;;;5078138;28;20210;-88
2023/06/03 02:02:22;;;;;;;8.93;4.57;;;12.00;99.90;;;;;;5064636;28;20744;-88
2023/06/03 02:04:56;;;;;;;7.60;4.10;;;12.00;99.90;;;;;;5038512;28;20217;-88
2023/06/03 02:07:29;;;;;;;8.87;4.97;;;12.00;99.90;;;;;;5076802;28;20208;-87
2023/06/03 02:10:08;;;;;;;7.47;4.60;;;11.90;99.90;;;;;;5058064;28;20382;-88
2023/06/03 02:12:35;;;;;;;4.90;4.30;;;11.90;99.90;;;;;;5056733;28;20232;-89
2023/06/03 02:15:07;;;;;;;7.63;4.67;;;11.80;99.90;;;;;;5056198;28;20240;-90
2023/06/03 02:17:36;;;;;;;6.03;4.50;;;11.80;99.90;;;;;;5050707;28;20214;-91
2023/06/03 02:20:05;;;;;;;7.90;4.57;;;11.80;99.90;;;;;;5045608;28;20912;-88
2023/06/03 02:22:33;;;;;;;7.07;4.53;;;11.70;99.90;;;;;;5056734;28;20243;-89
2023/06/03 02:25:04;;;;;;;6.27;5.10;;;11.70;99.90;;;;;;5055438;28;20207;-88
2023/06/03 02:27:31;;;;;;;5.67;4.37;;;11.60;99.90;;;;;;5051807;28;20206;-87
2023/06/03 02:29:58;;;;;;;6.90;5.13;;;11.60;99.90;;;;;;5064363;28;20205;-87
2023/06/03 02:32:27;;;;;;;6.07;4.37;;;11.60;99.90;;;;;;5065628;28;20229;-88
2023/06/03 02:34:55;;;;;;;8.13;4.57;;;11.50;99.90;;;;;;5055343;28;20207;-91
2023/06/03 02:37:24;;;;;;;6.63;4.93;;;11.50;99.90;;;;;;5055066;28;20207;-87
2023/06/03 02:39:53;;;;;;;6.20;4.70;;;11.60;99.90;;;;;;5055470;28;20201;-87
2023/06/03 02:42:20;;;;;;;7.77;4.40;;;11.50;99.90;;;;;;5054687;28;20205;-88
2023/06/03 02:44:47;;;;;;;7.13;4.70;;;11.50;99.90;;;;;;5054671;28;20369;-87
2023/06/03 02:47:16;;;;;;;7.47;4.73;;;11.60;99.90;;;;;;5041296;28;20237;-90
2023/06/03 02:49:46;;;;;;;8.30;4.40;;;11.50;99.90;;;;;;5032780;28;20289;-89
2023/06/03 02:52:14;;;;;;;5.20;4.20;;;11.70;99.90;;;;;;5033179;28;20202;-88
2023/06/03 02:54:42;;;;;;;9.07;4.53;;;12.10;99.90;;;;;;5033551;28;20990;-89
2023/06/03 02:57:23;;;;;;;5.57;4.40;;;11.50;99.90;;;;;;5022379;28;20237;-88
2023/06/03 02:59:51;;;;;;;5.73;4.10;;;11.20;99.90;;;;;;5033139;28;20206;-89
2023/06/03 03:02:21;;;;;;;8.43;4.53;;;11.10;99.90;;;;;;5022200;28;20700;-90
2023/06/03 03:04:50;;;;;;;7.63;5.37;;;11.10;99.90;;;;;;5027764;28;20593;-87
2023/06/03 03:07:26;;;;;;;6.63;4.17;;;11.00;99.90;;;;;;5027935;28;20230;-88
2023/06/03 03:09:54;;;;;;;6.00;4.60;;;11.00;99.90;;;;;;5016006;28;20210;-88
2023/06/03 03:12:24;;;;;;;8.10;4.70;;;11.30;99.90;;;;;;5031728;28;20198;-88
2023/06/03 03:14:53;;;;;;;5.83;4.07;;;10.40;99.90;;;;;;5030808;28;20202;-87
2023/06/03 03:17:20;;;;;;;5.97;4.13;;;11.00;99.90;;;;;;5030547;28;20670;-92
2023/06/03 03:19:48;;;;;;;8.20;4.13;;;10.90;99.90;;;;;;5024179;28;20202;-86
2023/06/03 03:22:17;;;;;;;6.43;4.50;;;10.80;99.90;;;;;;5032523;28;20194;-89
2023/06/03 03:24:44;;;;;;;6.83;4.07;;;11.30;99.90;;;;;;5028276;28;21521;-89
2023/06/03 03:27:13;;;;;;;7.10;4.30;;;10.60;99.90;;;;;;5026082;28;20292;-88
2023/06/03 03:29:44;;;;;;;5.83;4.00;;;11.20;99.90;;;;;;5027531;28;20225;-88
2023/06/03 03:32:13;;;;;;;8.13;4.20;;;10.70;99.90;;;;;;5026523;28;20596;-88
2023/06/03 03:34:41;;;;;;;10.27;4.17;;;9.80;99.90;;;;;;5024549;28;20270;-89
2023/06/03 03:37:13;;;;;;;5.27;4.00;;;10.80;99.90;;;;;;5030457;28;20240;-87
2023/06/03 03:39:40;;;;;;;6.23;3.77;;;11.10;99.90;;;;;;5028959;28;20209;-89
2023/06/03 03:42:09;;;;;;;6.33;4.23;;;10.60;99.90;;;;;;5018213;28;20224;-88
2023/06/03 03:44:39;;;;;;;4.90;3.60;;;10.60;99.90;;;;;;5025648;28;20204;-87
2023/06/03 03:47:06;;;;;;;7.20;3.70;;;10.60;99.90;;;;;;5012361;28;20327;-90
2023/06/03 03:49:36;;;;;;;6.83;3.67;;;10.60;99.90;;;;;;5030575;28;20220;-89
2023/06/03 03:52:05;;;;;;;6.13;3.60;;;10.50;99.90;;;;;;5028235;28;20249;-89
2023/06/03 03:54:37;;;;;;;5.20;3.70;;;10.60;99.90;;;;;;5021069;28;20696;-87
2023/06/03 03:57:12;;;;;;;3.97;3.17;;;10.50;99.90;;;;;;5022978;28;20202;-90
2023/06/03 03:59:44;;;;;;;6.27;3.37;;;10.60;99.90;;;;;;5023945;28;20215;-88
2023/06/03 04:02:19;;;;;;;6.93;3.57;;;10.60;99.90;;;;;;5031242;28;20309;-89
2023/06/03 04:04:50;;;;;;;5.83;3.63;;;10.60;99.90;;;;;;5027177;28;20257;-87
2023/06/03 04:07:21;;;;;;;4.80;3.57;;;10.60;99.90;;;;;;5034070;28;20225;-87
2023/06/03 04:09:49;;;;;;;3.77;2.97;;;10.60;99.90;;;;;;5030842;28;20219;-87
2023/06/03 04:12:32;;;;;;;5.77;3.17;;;10.60;99.90;;;;;;5023178;28;20214;-90
2023/06/03 04:15:00;;;;;;;6.17;3.30;;;10.70;99.90;;;;;;5030736;28;20210;-87
2023/06/03 04:17:30;;;;;;;4.43;3.07;;;10.70;99.90;;;;;;5026825;28;20224;-89
2023/06/03 04:20:00;;;;;;;5.13;3.00;;;10.80;99.90;;;;;;5028011;28;20928;-87
2023/06/03 04:22:38;;;;;;;4.83;3.07;;;10.70;99.90;;;;;;5035297;28;20202;-86
2023/06/03 04:25:09;;;;;;;6.80;3.13;;;10.70;99.90;;;;;;5030531;28;20707;-89
2023/06/03 04:27:40;;;;;;;5.97;3.40;;;10.70;99.90;;;;;;5033753;28;20297;-87
2023/06/03 04:30:11;;;;;;;6.30;2.80;;;10.80;99.90;;;;;;5034331;28;20233;-88
2023/06/03 04:32:41;;;;;;;3.40;2.60;;;10.80;99.90;;;;;;5027664;28;20222;-88
2023/06/03 04:35:10;;;;;;;6.00;2.83;;;10.90;99.90;;;;;;5026314;28;20663;-89
2023/06/03 04:37:37;;;;;;;3.63;2.90;;;10.90;99.90;;;;;;5025363;28;20275;-88
2023/06/03 04:40:17;;;;;;;4.03;2.90;;;10.90;99.90;;;;;;5038298;28;20293;-89
2023/06/03 04:42:46;;;;;;;5.67;3.10;;;10.90;99.90;;;;;;5036276;28;20210;-89
2023/06/03 04:45:14;;;;;;;6.77;2.73;;;11.00;99.90;;;;;;5034947;28;20259;-89
2023/06/03 04:47:47;;;;;;;6.67;2.90;;;11.00;99.90;;;;;;5033161;28;20325;-87
2023/06/03 04:50:27;;;;;;;4.10;3.00;;;11.10;99.90;;;;;;5031258;28;20722;-85
2023/06/03 04:52:56;;;;;;;4.77;2.80;;;11.10;99.90;;;;;;5025443;28;20215;-85
2023/06/03 04:55:25;;;;;;;5.60;3.40;;;11.00;99.90;;;;;;5024071;28;20640;-85
2023/06/03 04:57:55;;;;;;;5.67;2.90;;;11.20;99.90;;;;;;5021276;28;20206;-83
2023/06/03 05:00:23;;;;;;;5.70;2.93;;;11.20;99.90;;;;;;5022120;28;20207;-84
2023/06/03 05:03:08;;;;;;;3.30;2.30;;;11.30;99.90;;;;;;5022987;28;20219;-85
2023/06/03 05:05:44;;;;;;;4.10;2.63;;;11.30;99.90;;;;;;5023544;28;20233;-87
2023/06/03 05:08:52;;;;;;;3.90;2.63;;;11.50;99.90;;;;;;5024147;28;20210;-85
2023/06/03 05:11:22;;;;;;;4.07;2.40;;;11.50;99.90;;;;;;5020630;28;20245;-84
2023/06/03 05:13:51;;;;;;;3.60;2.27;;;11.50;99.90;;;;;;5024470;28;20203;-85
2023/06/03 05:16:18;;;;;;;8.47;2.70;;;11.60;99.90;;;;;;5024940;28;20231;-84
2023/06/03 05:18:45;;;;;;;4.93;2.43;;;11.70;99.90;;;;;;5019920;28;20208;-84
2023/06/03 05:21:19;;;;;;;2.80;2.00;;;11.80;99.90;;;;;;5022866;28;20669;-85
2023/06/03 05:23:50;;;;;;;5.17;2.10;;;11.80;99.90;;;;;;5022047;28;20264;-85
2023/06/03 05:26:17;;;;;;;2.10;1.90;;;11.90;99.90;;;;;;5024179;28;20340;-85
2023/06/03 05:28:48;;;;;;;2.80;2.17;;;12.30;99.90;;;;;;5030359;28;20198;-87
2023/06/03 05:31:18;;;;;;;3.17;1.90;;;13.30;99.90;;;;;;5033849;28;20728;-89
2023/06/03 05:33:46;;;;;;;4.07;1.70;;;14.40;99.90;;;;;;5033370;28;20518;-83
2023/06/03 05:36:14;;;;;;;4.38;2.03;;;16.60;99.90;;;;;;5022785;28;20264;-88
2023/06/03 05:38:47;;;;;;;2.28;2.00;;;;;;;;;;5025410;28;20198;-87
2023/06/03 05:41:15;;;;;;;2.60;1.92;;;18.10;99.90;;;;;;5026662;28;20214;-87
2023/06/03 05:43:53;;;;;;;2.92;1.70;;;19.00;99.90;;;;;;5026310;28;20272;-87
2023/06/03 05:46:21;;;;;;;3.90;1.42;;;20.00;99.90;;;;;;5032257;28;20648;-85
2023/06/03 05:48:51;;;;;;;2.35;1.60;;;20.80;99.90;;;;;;5048559;28;20205;-85
2023/06/03 05:51:43;;;;;;;;;;;;;;;;;;;;;
2023/06/03 05:54:19;;;;;;;3.88;1.58;;;22.20;99.90;;;;;;5069416;28;20209;-86
2023/06/03 05:56:47;;;;;;;2.38;1.40;;;22.70;99.90;;;;;;5049990;28;20211;-87
2023/06/03 05:59:19;;;;;;;2.75;1.58;;;23.00;99.90;;;;;;5050775;28;20263;-87
2023/06/03 06:01:46;;;;;;;3.80;1.80;;;23.40;99.90;;;;;;5056633;28;20244;-87
2023/06/03 06:04:16;;;;;;;2.03;1.40;;;24.00;99.90;;;;;;5054754;28;20978;-87
2023/06/03 06:06:44;;;;;;;2.00;1.60;;;24.40;99.90;;;;;;5061724;28;20603;-87
2023/06/03 06:09:18;;;;;;;2.58;1.60;;;24.70;99.90;;;;;;5054911;28;20208;-86
2023/06/03 06:11:53;;;;;;;1.85;1.30;;;25.10;99.80;;;;;;5046266;28;20200;-88
2023/06/03 06:14:21;;;;;;;4.10;1.63;;;25.40;98.40;;;;;;5046790;28;20204;-87
2023/06/03 06:16:51;;;;;;;1.48;1.10;;;25.60;97.10;;;;;;5070847;28;20228;-91
2023/06/03 06:19:25;;;;;;;1.90;1.38;;;25.60;96.40;;;;;;5068233;28;20211;-88
2023/06/03 06:21:55;;;;;;;2.40;1.30;;;25.70;95.40;;;;;;5052811;28;20275;-88
2023/06/03 06:24:22;;;;;;;2.15;1.42;;;25.60;94.60;;;;;;5052001;28;20209;-88
2023/06/03 06:26:55;;;;;;;3.72;1.70;;;25.70;94.90;;;;;;5068313;28;20318;-86
2023/06/03 06:29:23;;;;;;;2.70;1.50;;;26.00;93.90;;;;;;5050832;28;20570;-87
2023/06/03 06:31:51;;;;;;;2.45;1.45;;;26.30;93.20;;;;;;5053992;28;20341;-88
2023/06/03 06:34:21;;;;;;;2.25;1.40;;;26.50;93.20;;;;;;5049360;28;20220;-87
2023/06/03 06:36:52;;;;;;;1.83;1.15;;;26.60;92.20;;;;;;5059111;28;20205;-87
2023/06/03 06:39:32;;;;;;;2.88;1.52;;;26.80;91.50;;;;;;5053116;28;20203;-88
2023/06/03 06:42:13;;;;;;;3.67;1.30;;;27.10;90.10;;;;;;5047469;28;20315;-88
2023/06/03 06:44:56;;;;;;;1.58;1.25;;;27.30;90.10;;;;;;5069834;28;20240;-89
2023/06/03 06:47:25;;;;;;;2.10;1.35;;;27.00;87.60;;;;;;5056271;28;20657;-86
2023/06/03 06:49:57;;;;;;;3.58;1.20;;;26.80;88.40;;;;;;5031285;28;20222;-88
2023/06/03 06:52:26;;;;;;;3.65;1.70;;;26.90;86.90;;;;;;5030967;28;20213;-89
2023/06/03 06:55:12;;;;;;;1.95;1.35;;;26.90;87.10;;;;;;5025649;28;20768;-89
2023/06/03 06:57:40;;;;;;;3.00;1.10;;;27.00;87.30;;;;;;5028712;28;20288;-87
2023/06/03 07:00:10;;;;;;;3.30;1.50;;;27.00;85.80;;;;;;5019631;28;20312;-87
2023/06/03 07:02:38;;;;;;;3.08;1.52;;;27.00;85.00;;;;;;5026255;28;20231;-87
2023/06/03 07:05:05;;;;;;;3.70;1.40;;;27.10;85.00;;;;;;5028383;28;20230;-90
2023/06/03 07:07:37;;;;;;;1.98;1.27;;;27.50;85.00;;;;;;5034101;28;20602;-90
2023/06/03 07:10:07;;;;;;;1.80;1.20;;;27.80;82.50;;;;;;5029201;28;20209;-92
2023/06/03 07:12:44;;;;;;;5.45;1.50;;;27.80;81.30;;;;;;5036392;28;20206;-88
2023/06/03 07:15:11;;;;;;;2.38;1.23;;;27.90;80.40;;;;;;5028052;28;20264;-86
2023/06/03 07:17:40;;;;;;;2.15;1.35;;;27.90;81.10;;;;;;5024506;28;20589;-84
2023/06/03 07:20:07;;;;;;;1.70;1.10;;;27.80;79.90;;;;;;5021640;28;20206;-85
2023/06/03 07:22:36;;;;;;;2.10;1.10;;;27.80;79.40;;;;;;5026748;28;20210;-83
2023/06/03 07:25:06;;;;;;;2.55;1.08;;;27.80;79.20;;;;;;5024351;28;20217;-84
2023/06/03 07:27:37;;;;;;;3.15;1.10;;;27.50;75.50;;;;;;5025709;28;20221;-84
2023/06/03 07:30:17;;;;;;;3.47;1.30;;;27.10;75.90;;;;;;5022915;28;20305;-86
2023/06/03 07:32:44;;;;;;;1.83;1.15;;;27.20;76.70;;;;;;5027219;28;20222;-84
2023/06/03 07:35:17;;;;;;;2.05;1.10;;;27.20;76.80;;;;;;5024464;28;20250;-86
2023/06/03 07:37:45;;;;;;;3.28;1.10;;;27.30;75.00;;;;;;5022750;28;20320;-85
2023/06/03 07:40:15;;;;;;;1.52;1.20;;;27.40;74.60;;;;;;5025438;28;20213;-86
2023/06/03 07:42:47;;;;;;;1.38;0.90;;;27.40;73.80;;;;;;5031818;28;20573;-85
2023/06/03 07:45:14;;;;;;;3.55;1.20;;;27.50;74.00;;;;;;5033986;28;20212;-83
2023/06/03 07:47:42;;;;;;;3.08;1.23;;;27.40;73.60;;;;;;5045820;28;20272;-83
2023/06/03 07:50:23;;;;;;;1.48;1.10;;;27.40;72.80;;;;;;5069623;28;20204;-83
2023/06/03 07:52:59;;;;;;;2.80;1.20;;;27.20;72.50;;;;;;5072207;28;20211;-84
2023/06/03 07:56:00;;;;;;;3.17;1.00;;;27.20;71.90;;;;;;5055044;28;20204;-85
2023/06/03 07:58:28;;;;;;;1.77;1.23;;;27.30;70.60;;;;;;5030658;28;20208;-90
2023/06/03 08:00:55;;;;;;;1.17;0.77;;;27.20;73.70;;;;;;5082760;28;20310;-88
2023/06/03 08:03:25;;;;;;;1.52;0.95;;;27.20;71.30;;;;;;5062511;28;20290;-87
2023/06/03 08:05:57;;;;;;;2.75;0.90;;;27.20;71.60;;;;;;5059684;28;20251;-86
2023/06/03 08:08:46;;;;;;;1.20;0.88;;;27.10;70.10;;;;;;5051757;28;20220;-87
2023/06/03 08:12:04;;;;;;;1.92;1.00;;;26.80;69.20;;;;;;5055863;28;20201;-88
2023/06/03 08:14:48;;;;;;;2.80;1.00;;;26.60;70.40;;;;;;5069337;28;20223;-87
2023/06/03 08:17:27;;;;;;;1.98;1.10;;;26.00;69.60;;;;;;5053516;28;20231;-86
2023/06/03 08:19:55;;;;;;;1.50;0.85;;;26.00;71.30;;;;;;5053576;28;21025;-89
2023/06/03 08:22:43;;;;;;;2.22;1.15;;;26.00;71.10;;;;;;5073223;28;20309;-87
2023/06/03 08:25:13;;;;;;;2.45;0.70;;;26.10;69.10;;;;;;5056128;28;20206;-89
2023/06/03 08:27:48;;;;;;;2.15;0.82;;;26.10;68.50;;;;;;5057042;28;20227;-88
2023/06/03 08:30:31;;;;;;;1.63;0.85;;;26.10;69.00;;;;;;5074018;28;20224;-87
2023/06/03 08:32:59;;;;;;;1.67;0.88;;;26.10;67.40;;;;;;5072956;28;20667;-86
2023/06/03 08:35:29;;;;;;;0.70;0.60;;;25.80;67.10;;;;;;5055904;28;20205;-87
2023/06/03 08:37:57;;;;;;;4.53;0.85;;;25.70;66.90;;;;;;5059382;28;21428;-87
2023/06/03 08:40:26;;;;;;;2.47;0.77;;;25.70;67.50;;;;;;5078017;28;20228;-89
2023/06/03 08:43:02;;;;;;;1.20;0.75;;;25.40;65.00;;;;;;5068745;28;20212;-88
2023/06/03 08:45:47;;;;;;;4.05;0.77;;;24.80;66.40;;;;;;5050083;28;20234;-89
2023/06/03 08:48:45;;;;;;;1.45;0.80;;;24.40;64.60;;;;;;5040892;28;20243;-88
2023/06/03 08:51:16;;;;;;;2.72;0.80;;;24.00;66.10;;;;;;5028602;28;20202;-89
2023/06/03 08:53:52;;;;;;;1.95;0.90;;;23.80;67.20;;;;;;5033865;28;20209;-90
2023/06/03 08:56:20;;;;;;;2.28;1.00;;;23.60;68.30;;;;;;5031122;28;20259;-87
2023/06/03 08:59:01;;;;;;;1.02;0.80;;;23.50;68.00;;;;;;5032606;28;20213;-90
2023/06/03 09:01:39;;;;;;;1.90;0.90;;;23.50;67.20;;;;;;5027361;28;20279;-87
2023/06/03 09:04:14;;;;;;;0.80;0.80;;;23.40;65.90;;;;;;5030153;28;20206;-87
2023/06/03 09:06:46;;;;;;;1.88;0.80;;;23.60;66.10;;;;;;5026311;28;20213;-87
2023/06/03 09:09:17;;;;;;;1.95;0.82;;;23.80;65.40;;;;;;5029543;28;20232;-87
2023/06/03 09:11:49;;;;;;;2.35;0.90;;;24.10;65.40;;;;;;5028232;28;20737;-86
2023/06/03 09:14:18;;;;;;;1.60;0.70;;;24.10;62.30;;;;;;5029674;28;20206;-89
2023/06/03 09:16:47;;;;;;;2.58;0.90;;;24.10;63.30;;;;;;5030317;28;20218;-89
2023/06/03 09:19:17;;;;;;;6.32;0.98;;;24.10;62.50;;;;;;5035374;28;20206;-90
2023/06/03 09:21:46;;;;;;;1.58;1.00;;;23.70;61.70;;;;;;5032542;28;20205;-88
2023/06/03 09:24:13;;;;;;;1.23;0.82;;;23.60;61.60;;;;;;5034675;28;20746;-88
2023/06/03 09:26:44;;;;;;;1.80;0.77;;;23.30;60.20;;;;;;5030813;28;20236;-88
2023/06/03 09:29:13;;;;;;;2.25;0.82;;;23.10;62.70;;;;;;5032903;28;20734;-89
2023/06/03 09:31:48;;;;;;;0.80;0.70;;;23.30;63.00;;;;;;5030131;28;20227;-89
2023/06/03 09:34:22;;;;;;;1.33;0.93;;;23.50;62.40;;;;;;5032232;28;20214;-87
2023/06/03 09:36:54;;;;;;;0.70;0.70;;;23.80;62.20;;;;;;5037999;28;20336;-87
2023/06/03 09:39:36;;;;;;;0.70;0.70;;;23.90;63.80;;;;;;5035270;28;20198;-87
2023/06/03 09:42:04;;;;;;;1.23;0.80;;;23.90;62.10;;;;;;5038214;28;20217;-89
2023/06/03 09:44:55;;;;;;;1.23;0.90;;;23.80;63.20;;;;;;5039904;28;20241;-87
2023/06/03 09:47:22;;;;;;;2.67;0.88;;;23.80;63.10;;;;;;5047241;28;20247;-88
2023/06/03 09:50:11;;;;;;;0.98;0.70;;;23.90;64.20;;;;;;5050651;28;20209;-89
2023/06/03 09:52:39;;;;;;;1.25;0.80;;;24.10;62.00;;;;;;5038619;28;20194;-87
2023/06/03 09:55:09;;;;;;;0.98;0.80;;;24.30;63.10;;;;;;5030605;28;20236;-88
2023/06/03 09:57:38;;;;;;;1.08;0.80;;;24.30;61.20;;;;;;5039654;28;20213;-87
2023/06/03 10:00:47;;;;;;;1.90;1.13;;;23.80;59.80;;;;;;5041163;28;20205;-88
2023/06/03 10:03:33;;;;;;;4.50;3.72;;;23.80;63.20;;;;;;5033514;28;20209;-89
2023/06/03 10:06:26;;;;;;;1.10;1.00;;;24.00;62.10;;;;;;5040716;28;20228;-89
2023/06/03 10:08:57;;;;;;;0.75;0.50;;;24.30;63.50;;;;;;5043694;28;20237;-88
2023/06/03 10:11:49;;;;;;;1.50;0.90;;;24.50;62.40;;;;;;5043847;28;20203;-89
2023/06/03 10:14:22;;;;;;;1.05;0.85;;;24.60;60.50;;;;;;5038984;28;20206;-89
2023/06/03 10:17:08;;;;;;;1.52;0.60;;;24.60;59.90;;;;;;5046547;28;20325;-87
2023/06/03 10:19:46;;;;;;;1.55;0.90;;;24.70;58.30;;;;;;5044637;28;20535;-90
2023/06/03 10:22:18;;;;;;;0.63;0.63;;;24.40;59.10;;;;;;5037895;28;20201;-88
2023/06/03 10:24:49;;;;;;;0.57;0.45;;;24.30;58.80;;;;;;5031697;28;20198;-87
2023/06/03 10:27:18;;;;;;;0.75;0.70;;;24.30;58.90;;;;;;5049268;28;20210;-88
2023/06/03 10:29:52;;;;;;;0.75;0.60;;;24.30;58.90;;;;;;5048471;28;20202;-90
2023/06/03 10:32:29;;;;;;;0.68;0.65;;;24.50;59.50;;;;;;5050254;28;20197;-91
2023/06/03 10:34:59;;;;;;;1.80;0.80;;;24.50;57.90;;;;;;5044833;28;20280;-89
2023/06/03 10:37:39;;;;;;;4.93;0.90;;;24.40;58.60;;;;;;5047243;28;20186;-91
2023/06/03 10:40:13;;;;;;;0.70;0.60;;;24.50;58.70;;;;;;5047934;28;20206;-94
2023/06/03 10:42:58;;;;;;;2.25;0.77;;;24.50;58.20;;;;;;5039844;28;20282;-92
2023/06/03 10:45:27;;;;;;;1.25;0.68;;;24.70;58.90;;;;;;5042850;28;20197;-89
2023/06/03 10:48:12;;;;;;;1.88;0.80;;;24.40;57.60;;;;;;5039399;28;20591;-93
2023/06/03 10:54:38;;;;;;;2.53;0.80;;;24.10;57.20;;;;;;5090963;28;20274;-86
2023/06/03 10:57:08;;;;;;;1.45;0.70;;;23.80;57.40;;;;;;5079004;28;20212;-88
2023/06/03 10:59:43;;;;;;;1.50;0.73;;;23.70;57.50;;;;;;5062152;28;20201;-89
2023/06/03 11:02:50;;;;;;;2.45;0.65;;;23.80;58.10;;;;;;5062308;28;20255;-88
2023/06/03 11:05:22;;;;;;;3.00;0.63;;;23.90;59.60;;;;;;5065154;28;20251;-93
2023/06/03 11:07:54;;;;;;;1.95;0.52;;;24.10;58.80;;;;;;5077612;28;20281;-92
2023/06/03 11:10:44;;;;;;;1.77;0.60;;;24.10;58.10;;;;;;5052750;28;20387;-90
2023/06/03 11:13:40;;;;;;;0.63;0.52;;;23.80;56.00;;;;;;5066309;28;20205;-90
2023/06/03 11:16:19;;;;;;;3.15;0.73;;;23.60;58.80;;;;;;5064248;28;20283;-92
2023/06/03 11:19:33;;;;;;;2.72;0.80;;;23.50;59.40;;;;;;5073077;28;20758;-88
2023/06/03 11:22:04;;;;;;;1.17;0.88;;;23.40;59.00;;;;;;5069036;28;20223;-85
2023/06/03 11:24:38;;;;;;;2.25;0.80;;;23.50;61.10;;;;;;5064157;28;20564;-87
2023/06/03 11:27:27;;;;;;;2.35;0.90;;;23.80;60.20;;;;;;5054368;28;20204;-87
2023/06/03 11:30:02;;;;;;;0.68;0.55;;;24.10;58.50;;;;;;5052371;28;20205;-83
2023/06/03 11:32:33;;;;;;;3.42;0.73;;;24.10;57.60;;;;;;5051474;28;20216;-85
2023/06/03 11:35:02;;;;;;;1.47;0.73;;;23.90;57.40;;;;;;5063420;28;21006;-83
2023/06/03 11:37:56;;;;;;;1.13;0.70;;;24.00;59.30;;;;;;5063011;28;20221;-84
2023/06/03 11:40:24;;;;;;;1.48;0.80;;;24.30;60.40;;;;;;5051715;28;20697;-87
2023/06/03 11:42:53;;;;;;;1.48;0.80;;;24.60;59.90;;;;;;5077323;28;20259;-88
2023/06/03 11:45:29;;;;;;;4.13;0.80;;;24.80;58.50;;;;;;5064281;28;20246;-87
2023/06/03 11:48:10;;;;;;;3.10;0.68;;;25.00;58.50;;;;;;5059560;28;20251;-88
2023/06/03 11:50:57;;;;;;;2.92;0.82;;;25.20;57.40;;;;;;5052285;28;20731;-87
2023/06/03 11:53:34;;;;;;;0.65;0.57;;;25.10;56.50;;;;;;5065741;28;20211;-87
2023/06/03 11:56:09;;;;;;;2.60;0.90;;;24.90;57.00;;;;;;5056007;28;20235;-86
2023/06/03 11:58:41;;;;;;;1.42;0.90;;;24.60;57.50;;;;;;5082324;28;20566;-88
2023/06/03 12:01:16;;;;;;;0.55;0.55;;;24.70;59.20;;;;;;5048152;28;20224;-90
2023/06/03 12:04:00;;;;;;;0.60;0.60;;;24.90;59.60;;;;;;5047114;28;20196;-89
2023/06/03 12:06:37;;;;;;;1.50;0.70;;;25.00;59.10;;;;;;5059593;28;20258;-84
2023/06/03 12:09:04;;;;;;;1.55;1.00;;;24.80;57.80;;;;;;5067753;28;20307;-85
2023/06/03 12:11:33;;;;;;;2.58;0.90;;;24.50;57.80;;;;;;5071126;28;20197;-84
2023/06/03 12:14:00;;;;;;;1.42;0.88;;;24.40;57.80;;;;;;5056764;28;20203;-86
2023/06/03 12:16:35;;;;;;;1.50;0.80;;;24.30;58.00;;;;;;5068203;28;20245;-89
2023/06/03 12:19:06;;;;;;;2.28;0.70;;;24.50;58.40;;;;;;5070404;28;20232;-86
2023/06/03 12:21:35;;;;;;;2.25;0.80;;;24.50;59.20;;;;;;5056804;28;20240;-87
2023/06/03 12:24:10;;;;;;;1.67;0.77;;;24.70;59.60;;;;;;5055110;28;20300;-85
2023/06/03 12:26:38;;;;;;;2.55;0.70;;;24.90;59.40;;;;;;5045730;28;20907;-85
2023/06/03 12:29:08;;;;;;;1.65;0.88;;;25.00;59.30;;;;;;5052895;28;20278;-88
2023/06/03 12:31:35;;;;;;;1.50;0.65;;;25.30;58.30;;;;;;5049649;28;20221;-85
2023/06/03 12:34:06;;;;;;;2.13;0.70;;;25.40;57.90;;;;;;5048249;28;20209;-85
2023/06/03 12:36:49;;;;;;;2.97;0.73;;;25.50;58.40;;;;;;5043979;28;20205;-86
2023/06/03 12:39:19;;;;;;;0.73;0.60;;;25.50;57.00;;;;;;5060860;28;20201;-86
2023/06/03 12:41:54;;;;;;;2.05;0.70;;;25.20;56.10;;;;;;5056949;28;20649;-85
2023/06/03 12:44:22;;;;;;;2.25;0.63;;;25.10;57.40;;;;;;5071889;28;20653;-84
2023/06/03 12:47:03;;;;;;;3.28;0.70;;;25.20;58.00;;;;;;5054875;28;20331;-85
2023/06/03 12:49:31;;;;;;;1.35;0.90;;;25.30;56.50;;;;;;5060173;28;20221;-86
2023/06/03 12:52:19;;;;;;;1.13;0.68;;;25.30;56.30;;;;;;5066974;28;20217;-86
2023/06/03 12:54:50;;;;;;;1.35;0.52;;;25.20;57.00;;;;;;5063657;28;20311;-86
2023/06/03 12:57:20;;;;;;;3.00;0.60;;;25.00;55.60;;;;;;5054001;28;20212;-85
2023/06/03 12:59:58;;;;;;;0.77;0.63;;;25.00;56.30;;;;;;5066253;28;20211;-86
2023/06/03 13:02:25;;;;;;;0.95;0.80;;;25.10;56.80;;;;;;5067590;28;20220;-86
2023/06/03 13:04:56;;;;;;;1.95;0.73;;;25.10;55.10;;;;;;5069461;28;20248;-86
2023/06/03 13:07:23;;;;;;;0.60;0.60;;;25.00;55.50;;;;;;5066114;28;20243;-86
2023/06/03 13:09:54;;;;;;;1.20;0.70;;;24.90;55.80;;;;;;5053922;28;20234;-85
2023/06/03 13:12:21;;;;;;;1.48;0.68;;;24.90;55.80;;;;;;5064576;28;20707;-85
2023/06/03 13:14:49;;;;;;;1.80;0.57;;;24.90;54.50;;;;;;5064479;28;20204;-86
2023/06/03 13:17:16;;;;;;;1.30;0.70;;;24.70;54.60;;;;;;5064884;28;20221;-87
2023/06/03 13:19:43;;;;;;;0.52;0.52;;;24.70;54.50;;;;;;5048306;28;20197;-86
2023/06/03 13:22:10;;;;;;;0.60;0.47;;;24.70;53.70;;;;;;5066187;28;20266;-87